Monticello, Georgia
Current Conditions -  °F | °C
As of 4:15 PM on Monday 22 Dec 2014 (Local Time) from KCVC Reporting Station
Overcast Overcast  
Wind Chill: 42°   Ceiling: 300
Heat Index: 46°   Visibility: 7mi
Dew Point: 45°   Wind: 8mph
Humidity: 93%   Direction: 90°E
Pressure: 29.94"   Gusts: NA
Location:  33.3°N, 83.68°W
Report Text: KCVC 222115Z AUTO 09007KT 7SM OVC003 08/07 A2994 RMK AO2 LTG DSNT W
Loading
Personal Weather Stations






























Interactive Weather Map New forecast layout! Learn more

10-Day Weather Forecast

Advertisements
Track Severe Weather on mobile